Time;durP1;ratioP1;P1;durP2;ratioP2;P2;SDS_P1;SDS_P2;PMS_P1;PMS_P2;Temp;Humidity;BMP_temperature;BMP_pressure;BME280_temperature;BME280_humidity;BME280_pressure;Samples;Min_cycle;Max_cycle;Signal;HPM_P1;HPM_P2
2022/12/08 00:00:44;;;;;;;8.67;6.90;;;4.10;99.90;;;;;;5073666;28;20214;-60
2022/12/08 00:03:11;;;;;;;9.57;7.03;;;4.10;99.90;;;;;;5072886;28;20244;-60
2022/12/08 00:11:12;;;;;;;11.23;7.43;;;4.20;99.90;;;;;;5073055;28;20223;-61
2022/12/08 00:13:39;;;;;;;10.60;7.00;;;4.20;99.90;;;;;;5073790;28;20682;-60
2022/12/08 00:16:07;;;;;;;10.27;7.17;;;4.30;99.90;;;;;;5073719;28;20223;-59
2022/12/08 00:18:34;;;;;;;9.43;7.20;;;4.40;99.90;;;;;;5073521;28;20205;-59
2022/12/08 00:21:02;;;;;;;9.77;7.07;;;4.50;99.90;;;;;;5073258;28;20580;-59
2022/12/08 00:23:29;;;;;;;18.73;11.53;;;4.60;99.90;;;;;;5073074;28;20227;-60
2022/12/08 00:25:56;;;;;;;17.23;11.23;;;4.60;99.90;;;;;;5073102;28;20665;-60
2022/12/08 00:28:22;;;;;;;17.50;10.73;;;4.70;99.90;;;;;;5073911;28;20201;-60
2022/12/08 00:30:49;;;;;;;23.17;13.23;;;4.70;99.90;;;;;;5073257;28;20611;-60
2022/12/08 00:33:16;;;;;;;28.33;16.20;;;4.60;99.90;;;;;;5073546;28;20212;-59
2022/12/08 00:35:42;;;;;;;33.63;17.70;;;4.60;99.90;;;;;;5075480;28;20201;-60
2022/12/08 00:38:11;;;;;;;21.20;12.47;;;4.70;99.90;;;;;;5072766;28;20213;-60
2022/12/08 00:40:37;;;;;;;15.83;10.60;;;4.70;99.90;;;;;;5072690;28;20205;-60
2022/12/08 00:43:04;;;;;;;16.43;11.03;;;4.70;99.90;;;;;;5072177;28;20228;-60
2022/12/08 00:45:31;;;;;;;20.13;11.70;;;4.50;99.90;;;;;;5072481;28;20205;-60
2022/12/08 00:47:57;;;;;;;18.27;11.70;;;4.50;99.90;;;;;;5075627;28;20214;-61
2022/12/08 00:50:24;;;;;;;18.10;11.53;;;4.40;99.90;;;;;;5077023;28;20233;-60
2022/12/08 00:52:51;;;;;;;14.20;9.90;;;4.40;99.90;;;;;;5076340;28;20239;-60
2022/12/08 00:55:19;;;;;;;20.63;12.80;;;4.20;99.90;;;;;;5076766;28;20215;-60
2022/12/08 00:57:46;;;;;;;19.10;12.77;;;4.10;99.90;;;;;;5076639;28;20204;-60
2022/12/08 01:00:13;;;;;;;17.97;11.33;;;4.00;99.90;;;;;;5076541;28;20205;-60
2022/12/08 01:02:40;;;;;;;23.47;13.97;;;3.90;99.90;;;;;;5076011;28;20235;-60
2022/12/08 01:05:08;;;;;;;19.57;12.37;;;3.80;99.90;;;;;;5076736;28;20212;-60
2022/12/08 01:07:34;;;;;;;22.10;12.63;;;3.70;99.90;;;;;;5076628;28;20205;-60
2022/12/08 01:10:01;;;;;;;39.30;19.07;;;3.60;99.90;;;;;;5076774;28;20229;-60
2022/12/08 01:12:30;;;;;;;31.47;17.00;;;3.50;99.90;;;;;;5075801;28;20235;-60
2022/12/08 01:14:57;;;;;;;24.87;15.07;;;3.50;99.90;;;;;;5076650;28;20201;-60
2022/12/08 01:17:23;;;;;;;28.13;16.87;;;3.40;99.90;;;;;;5085219;28;20209;-61
2022/12/08 01:19:50;;;;;;;17.90;11.83;;;3.30;99.90;;;;;;5089121;28;20220;-60
2022/12/08 01:22:17;;;;;;;19.00;12.77;;;3.20;99.90;;;;;;5087099;28;20221;-60
2022/12/08 01:24:44;;;;;;;16.13;11.20;;;3.10;99.90;;;;;;5087237;28;20209;-60
2022/12/08 01:27:10;;;;;;;17.53;10.90;;;3.10;99.90;;;;;;5084896;28;20590;-60
2022/12/08 01:29:38;;;;;;;16.50;10.57;;;3.00;99.90;;;;;;5076789;28;20221;-60
2022/12/08 01:32:05;;;;;;;14.63;10.63;;;3.00;99.90;;;;;;5093704;22;20330;-53
2022/12/08 01:34:32;;;;;;;17.60;11.23;;;3.00;99.90;;;;;;5067127;28;20207;-54
2022/12/08 01:36:59;;;;;;;14.37;9.43;;;2.90;99.90;;;;;;5075415;28;20205;-54
2022/12/08 01:39:26;;;;;;;14.13;9.70;;;2.90;99.90;;;;;;5075852;28;20203;-54
2022/12/08 01:41:52;;;;;;;13.30;8.60;;;2.80;99.90;;;;;;5074652;28;20228;-54
2022/12/08 01:44:59;;;;;;;12.97;8.47;;;2.70;99.90;;;;;;5076102;28;20301;-54
2022/12/08 01:47:32;;;;;;;11.20;7.43;;;2.70;99.90;;;;;;5075628;28;20672;-54
2022/12/08 01:49:59;;;;;;;10.90;7.50;;;2.70;99.90;;;;;;5075903;28;20232;-54
2022/12/08 01:52:31;;;;;;;10.87;7.80;;;2.70;99.90;;;;;;5075409;28;20231;-54
2022/12/08 01:55:02;;;;;;;11.93;7.67;;;2.70;99.90;;;;;;5075809;28;20291;-54
2022/12/08 01:57:33;;;;;;;12.03;6.93;;;2.60;99.90;;;;;;5076312;28;20186;-54
2022/12/08 02:00:04;;;;;;;11.67;7.57;;;2.60;99.90;;;;;;5074937;28;20208;-54
2022/12/08 02:02:36;;;;;;;14.40;7.67;;;2.50;99.90;;;;;;5075604;28;20228;-53
2022/12/08 02:05:04;;;;;;;9.63;7.20;;;2.50;99.90;;;;;;5076013;28;20212;-53
2022/12/08 02:07:31;;;;;;;10.50;7.40;;;2.40;99.90;;;;;;5075534;28;20211;-53
2022/12/08 02:09:58;;;;;;;9.73;7.13;;;2.40;99.90;;;;;;5074721;28;20696;-53
2022/12/08 02:12:25;;;;;;;10.00;6.80;;;2.40;99.90;;;;;;5074575;28;20229;-54
2022/12/08 02:14:52;;;;;;;9.27;6.17;;;2.30;99.90;;;;;;5075176;28;20216;-54
2022/12/08 02:17:41;;;;;;;8.87;6.77;;;2.30;99.90;;;;;;5074855;28;20207;-54
2022/12/08 02:20:33;;;;;;;12.00;8.27;;;2.30;99.90;;;;;;5074601;28;20204;-53
2022/12/08 02:23:06;;;;;;;13.47;8.77;;;2.30;99.90;;;;;;5074309;28;20712;-54
2022/12/08 02:25:46;;;;;;;11.70;8.23;;;2.30;99.90;;;;;;5074944;28;20201;-53
2022/12/08 02:28:38;;;;;;;11.70;7.83;;;2.20;99.90;;;;;;5075201;28;20287;-53
2022/12/08 02:31:17;;;;;;;11.43;7.60;;;2.10;99.90;;;;;;5074487;28;20228;-53
2022/12/08 02:34:24;;;;;;;11.73;8.27;;;2.10;99.90;;;;;;5074625;28;20367;-53
2022/12/08 02:37:01;;;;;;;11.50;8.57;;;2.00;99.90;;;;;;4993601;28;20299;-54
2022/12/08 02:39:37;;;;;;;11.00;7.57;;;1.60;99.90;;;;;;4993629;28;20215;-53
2022/12/08 02:42:12;;;;;;;11.07;7.57;;;1.50;99.90;;;;;;5043499;28;20224;-53
2022/12/08 02:44:43;;;;;;;13.93;7.60;;;1.50;99.90;;;;;;5075164;28;20581;-53
2022/12/08 02:47:14;;;;;;;12.93;8.60;;;1.60;99.90;;;;;;5074902;28;20212;-54
2022/12/08 02:49:42;;;;;;;13.03;8.43;;;1.60;99.90;;;;;;5074419;28;20228;-54
2022/12/08 02:52:40;;;;;;;13.70;8.53;;;1.60;99.90;;;;;;5073756;28;20730;-54
2022/12/08 02:55:15;;;;;;;11.93;7.87;;;1.60;99.90;;;;;;5074319;28;20240;-54
2022/12/08 02:57:52;;;;;;;12.53;8.33;;;1.60;99.90;;;;;;5074147;28;20204;-54
2022/12/08 03:00:20;;;;;;;13.07;8.33;;;1.50;99.90;;;;;;5074092;28;20304;-54
2022/12/08 03:02:59;;;;;;;13.20;8.67;;;1.50;99.90;;;;;;5073704;28;20235;-54
2022/12/08 03:05:40;;;;;;;12.87;8.03;;;1.50;99.90;;;;;;5074119;28;20315;-54
2022/12/08 03:08:14;;;;;;;10.90;8.20;;;1.50;99.90;;;;;;5073719;28;20211;-59
2022/12/08 03:10:45;;;;;;;9.93;7.43;;;1.40;99.90;;;;;;5072950;28;20232;-54
2022/12/08 03:13:14;;;;;;;11.67;7.97;;;1.40;99.90;;;;;;5073160;28;20251;-54
2022/12/08 03:15:42;;;;;;;14.57;8.43;;;1.40;99.90;;;;;;5073394;28;20205;-54
2022/12/08 03:18:13;;;;;;;12.67;8.77;;;1.40;99.90;;;;;;5073916;28;20201;-54
2022/12/08 03:20:42;;;;;;;17.63;9.73;;;1.40;99.90;;;;;;5073469;28;20201;-55
2022/12/08 03:23:12;;;;;;;15.67;9.37;;;1.40;99.90;;;;;;5073244;28;20229;-54
2022/12/08 03:25:46;;;;;;;16.10;9.73;;;1.40;99.90;;;;;;5074028;28;20224;-54
2022/12/08 03:28:14;;;;;;;14.50;8.93;;;1.40;99.90;;;;;;5073913;28;20235;-54
2022/12/08 03:30:43;;;;;;;13.73;9.03;;;1.20;99.90;;;;;;5074500;28;20322;-54
2022/12/08 03:33:15;;;;;;;10.80;7.87;;;1.20;99.90;;;;;;5074053;28;20264;-54
2022/12/08 03:35:45;;;;;;;10.33;7.33;;;1.10;99.90;;;;;;5074460;28;20223;-55
2022/12/08 03:38:15;;;;;;;9.80;7.40;;;1.10;99.90;;;;;;5073962;28;20312;-54
2022/12/08 03:40:42;;;;;;;11.07;7.77;;;1.20;99.90;;;;;;5073946;28;20604;-54
2022/12/08 03:43:09;;;;;;;12.03;7.30;;;1.20;99.90;;;;;;5073475;28;20647;-54
2022/12/08 03:45:36;;;;;;;10.33;7.33;;;1.20;99.90;;;;;;5073924;28;20253;-55
2022/12/08 03:48:03;;;;;;;11.37;7.43;;;1.10;99.90;;;;;;5072855;28;20216;-54
2022/12/08 03:50:30;;;;;;;9.33;7.57;;;1.00;99.90;;;;;;5072698;28;20231;-54
2022/12/08 03:52:58;;;;;;;11.90;7.40;;;1.00;99.90;;;;;;5072237;28;20224;-54
2022/12/08 03:55:25;;;;;;;10.57;7.10;;;1.00;99.90;;;;;;5072970;28;20227;-54
2022/12/08 03:57:52;;;;;;;12.77;7.00;;;1.00;99.90;;;;;;5072850;28;20215;-54
2022/12/08 04:00:19;;;;;;;8.40;6.07;;;1.00;99.90;;;;;;5072940;28;20284;-54
2022/12/08 04:02:46;;;;;;;9.70;7.47;;;1.10;99.90;;;;;;5072171;28;20260;-54
2022/12/08 04:05:12;;;;;;;10.47;7.57;;;1.10;99.90;;;;;;5072399;28;20691;-54
2022/12/08 04:07:39;;;;;;;10.43;6.80;;;1.20;99.90;;;;;;5072717;28;20299;-55
2022/12/08 04:10:09;;;;;;;11.10;6.63;;;1.30;99.90;;;;;;5072438;28;20312;-54
2022/12/08 04:12:36;;;;;;;9.73;7.17;;;1.30;99.90;;;;;;5071936;28;20312;-55
2022/12/08 04:15:02;;;;;;;10.80;7.43;;;1.30;99.90;;;;;;5072403;28;20614;-54
2022/12/08 04:17:29;;;;;;;13.53;6.97;;;1.30;99.90;;;;;;5072572;28;20709;-54
2022/12/08 04:19:56;;;;;;;9.23;6.70;;;1.30;99.90;;;;;;5072260;28;20201;-54
2022/12/08 04:22:23;;;;;;;9.80;7.00;;;1.30;99.90;;;;;;5071026;28;20225;-54
2022/12/08 04:24:50;;;;;;;12.27;7.77;;;1.30;99.90;;;;;;5072339;28;20595;-54
2022/12/08 04:27:18;;;;;;;9.97;6.83;;;1.20;99.90;;;;;;5072420;28;20208;-55
2022/12/08 04:29:45;;;;;;;13.37;8.00;;;1.10;99.90;;;;;;5072302;28;20204;-54
2022/12/08 04:32:11;;;;;;;11.07;8.00;;;1.10;99.90;;;;;;5071660;28;20324;-55
2022/12/08 04:34:38;;;;;;;11.73;8.07;;;1.00;99.90;;;;;;5072066;28;20292;-54
2022/12/08 04:37:05;;;;;;;14.00;7.87;;;0.90;99.90;;;;;;5072093;28;20205;-54
2022/12/08 04:39:32;;;;;;;13.27;7.70;;;0.90;99.90;;;;;;5072326;28;20211;-54
2022/12/08 04:41:59;;;;;;;11.47;8.27;;;0.90;99.90;;;;;;5071868;28;20278;-54
2022/12/08 04:44:27;;;;;;;11.93;8.00;;;1.00;99.90;;;;;;5072034;28;20578;-54
2022/12/08 04:46:54;;;;;;;9.97;7.27;;;0.90;99.90;;;;;;5071944;28;20215;-55
2022/12/08 04:49:20;;;;;;;12.87;7.80;;;0.80;99.90;;;;;;5071904;28;20200;-54
2022/12/08 04:51:47;;;;;;;11.17;7.10;;;0.70;99.90;;;;;;5071633;28;20792;-54
2022/12/08 04:54:14;;;;;;;11.23;7.53;;;0.70;99.90;;;;;;5072146;28;20259;-54
2022/12/08 04:56:41;;;;;;;11.57;8.10;;;0.80;99.90;;;;;;5072061;28;20243;-54
2022/12/08 04:59:08;;;;;;;11.27;7.77;;;0.80;99.90;;;;;;5072412;28;20321;-55
2022/12/08 05:01:36;;;;;;;13.07;8.00;;;0.90;99.90;;;;;;5072137;28;20266;-54
2022/12/08 05:04:03;;;;;;;12.43;8.27;;;1.00;99.90;;;;;;5071728;28;20255;-54
2022/12/08 05:06:30;;;;;;;11.40;8.10;;;1.00;99.90;;;;;;5072243;28;20205;-55
2022/12/08 05:08:56;;;;;;;11.27;7.97;;;0.90;99.90;;;;;;5072429;28;20205;-53
2022/12/08 05:11:23;;;;;;;11.13;8.10;;;0.90;99.90;;;;;;5072054;28;20783;-53
2022/12/08 05:13:50;;;;;;;10.17;7.07;;;1.00;99.90;;;;;;5071713;28;20228;-53
2022/12/08 05:16:17;;;;;;;11.67;8.10;;;0.90;99.90;;;;;;5072098;28;20236;-54
2022/12/08 05:18:45;;;;;;;12.30;7.90;;;0.90;99.90;;;;;;5072671;28;20235;-54
2022/12/08 05:21:12;;;;;;;12.90;8.20;;;0.90;99.90;;;;;;5072748;28;20216;-54
2022/12/08 05:23:39;;;;;;;11.23;8.03;;;0.90;99.90;;;;;;5072225;28;20243;-53
2022/12/08 05:26:06;;;;;;;11.00;8.07;;;0.90;99.90;;;;;;5071758;28;20211;-54
2022/12/08 05:28:33;;;;;;;12.27;8.07;;;1.00;99.90;;;;;;5071786;28;20270;-53
2022/12/08 05:31:00;;;;;;;11.23;8.03;;;1.00;99.90;;;;;;5071674;28;20312;-53
2022/12/08 05:33:27;;;;;;;13.43;8.57;;;1.00;99.90;;;;;;5072885;28;20237;-54
2022/12/08 05:35:55;;;;;;;12.13;9.10;;;1.10;99.90;;;;;;5075573;28;20201;-54
2022/12/08 05:38:22;;;;;;;12.17;8.60;;;1.10;99.90;;;;;;5075465;28;20208;-52
2022/12/08 05:40:49;;;;;;;11.93;8.63;;;1.20;99.90;;;;;;5075641;28;20348;-53
2022/12/08 05:43:16;;;;;;;11.23;8.23;;;1.30;99.90;;;;;;5075131;28;20602;-53
2022/12/08 05:45:43;;;;;;;13.70;9.17;;;1.40;99.90;;;;;;5075170;28;20592;-54
2022/12/08 05:48:10;;;;;;;12.43;8.47;;;1.40;99.90;;;;;;5075615;28;20266;-54
2022/12/08 05:50:37;;;;;;;12.37;9.10;;;1.30;99.90;;;;;;5075551;28;20229;-54
2022/12/08 05:53:06;;;;;;;11.53;8.63;;;1.20;99.90;;;;;;5075270;28;20225;-54
2022/12/08 05:55:33;;;;;;;13.13;9.20;;;1.10;99.90;;;;;;5075438;28;20208;-54
2022/12/08 05:57:59;;;;;;;12.30;9.33;;;1.10;99.90;;;;;;5075098;28;20635;-54
2022/12/08 06:00:26;;;;;;;16.27;9.17;;;1.00;99.90;;;;;;5075569;28;20221;-53
2022/12/08 06:02:53;;;;;;;13.67;10.03;;;1.10;99.90;;;;;;5075199;28;20228;-55
2022/12/08 06:05:20;;;;;;;15.50;9.90;;;1.10;99.90;;;;;;5075493;28;20215;-53
2022/12/08 06:07:47;;;;;;;13.73;9.83;;;1.10;99.90;;;;;;5075338;28;20212;-53
2022/12/08 06:10:16;;;;;;;13.40;9.57;;;0.90;99.90;;;;;;5075025;28;20736;-54
2022/12/08 06:12:43;;;;;;;13.93;9.37;;;0.70;99.90;;;;;;5074543;28;20232;-54
2022/12/08 06:15:10;;;;;;;14.10;9.20;;;0.50;99.90;;;;;;5075081;28;20212;-54
2022/12/08 06:17:37;;;;;;;13.10;9.33;;;0.50;99.90;;;;;;5075596;28;20211;-53
2022/12/08 06:20:06;;;;;;;14.00;9.93;;;0.60;99.90;;;;;;5075277;28;20235;-54
2022/12/08 06:22:32;;;;;;;14.03;10.07;;;0.70;99.90;;;;;;5074532;28;20282;-54
2022/12/08 06:24:59;;;;;;;14.27;9.83;;;0.70;99.90;;;;;;5074862;28;20205;-54
2022/12/08 06:27:27;;;;;;;14.37;10.00;;;0.70;99.90;;;;;;5074719;28;20205;-54
2022/12/08 06:29:54;;;;;;;13.20;9.50;;;0.80;99.90;;;;;;5075418;28;20211;-54
2022/12/08 06:32:21;;;;;;;12.97;9.23;;;0.80;99.90;;;;;;5074123;28;20346;-54
2022/12/08 06:34:48;;;;;;;12.37;9.17;;;0.80;99.90;;;;;;5074824;28;20209;-54
2022/12/08 06:37:15;;;;;;;12.60;9.03;;;0.60;99.90;;;;;;5074588;28;20263;-54
2022/12/08 06:39:42;;;;;;;16.47;10.07;;;0.60;99.90;;;;;;5074653;28;20281;-54
2022/12/08 06:44:55;;;;;;;16.80;11.53;;;0.60;99.90;;;;;;5073936;28;20200;-54
2022/12/08 06:47:22;;;;;;;13.77;9.87;;;0.70;99.90;;;;;;5074806;28;20734;-55
2022/12/08 06:49:49;;;;;;;15.27;10.37;;;0.70;99.90;;;;;;5074671;28;20221;-54
2022/12/08 06:52:16;;;;;;;14.80;10.53;;;0.60;99.90;;;;;;5073847;28;20240;-54
2022/12/08 06:54:43;;;;;;;15.77;10.83;;;0.60;99.90;;;;;;5074523;28;20681;-55
2022/12/08 06:57:10;;;;;;;14.83;9.80;;;0.60;99.90;;;;;;5074452;28;20316;-54
2022/12/08 06:59:39;;;;;;;13.80;10.00;;;0.60;99.90;;;;;;5075370;28;20208;-55
2022/12/08 07:02:07;;;;;;;13.13;9.47;;;0.50;99.90;;;;;;5073730;28;20250;-54
2022/12/08 07:04:34;;;;;;;14.60;9.80;;;0.50;99.90;;;;;;5074491;28;20201;-54
2022/12/08 07:07:01;;;;;;;14.13;9.83;;;0.50;99.90;;;;;;5074389;28;20259;-54
2022/12/08 07:09:28;;;;;;;13.73;9.47;;;0.60;99.90;;;;;;5074437;28;20211;-55
2022/12/08 07:11:54;;;;;;;14.00;9.00;;;0.60;99.90;;;;;;5073910;28;20321;-55
2022/12/08 07:14:23;;;;;;;14.67;9.83;;;0.60;99.90;;;;;;5073921;28;20288;-55
2022/12/08 07:16:50;;;;;;;12.80;8.77;;;0.60;99.90;;;;;;5074219;28;20559;-55
2022/12/08 07:19:19;;;;;;;13.97;9.53;;;0.60;99.90;;;;;;5073935;28;20201;-55
2022/12/08 07:21:46;;;;;;;14.17;9.23;;;0.60;99.90;;;;;;5074265;28;20221;-55
2022/12/08 07:24:13;;;;;;;14.03;9.10;;;0.70;99.90;;;;;;5073168;28;20299;-54
2022/12/08 07:26:40;;;;;;;14.13;9.13;;;0.50;99.90;;;;;;5073513;28;20209;-55
2022/12/08 07:29:07;;;;;;;13.47;9.20;;;0.40;99.90;;;;;;5073383;28;20731;-56
2022/12/08 07:31:34;;;;;;;16.43;9.70;;;0.40;99.90;;;;;;5073704;28;20240;-55
2022/12/08 07:34:01;;;;;;;14.47;9.20;;;0.30;99.90;;;;;;5072662;28;20205;-54
2022/12/08 07:36:31;;;;;;;13.60;9.53;;;0.40;99.90;;;;;;5073831;28;20665;-55
2022/12/08 07:38:58;;;;;;;15.00;10.27;;;0.60;99.90;;;;;;5073306;28;20247;-55
2022/12/08 07:41:26;;;;;;;14.83;11.13;;;0.70;99.90;;;;;;5073446;28;20212;-54
2022/12/08 07:43:53;;;;;;;17.93;10.63;;;0.90;99.90;;;;;;5072784;28;20232;-54
2022/12/08 07:46:22;;;;;;;13.10;9.77;;;1.00;99.90;;;;;;5073083;28;20205;-55
2022/12/08 07:48:49;;;;;;;15.37;9.73;;;1.10;99.90;;;;;;5073038;28;20208;-55
2022/12/08 07:51:17;;;;;;;13.17;9.60;;;1.20;99.90;;;;;;5073196;28;20224;-52
2022/12/08 07:53:47;;;;;;;15.90;9.90;;;1.20;99.90;;;;;;5072867;28;20664;-53
2022/12/08 07:56:15;;;;;;;15.20;9.60;;;1.30;99.90;;;;;;5072535;28;20296;-53
2022/12/08 07:58:44;;;;;;;13.47;9.93;;;1.50;99.90;;;;;;5072968;28;20235;-53
2022/12/08 08:01:20;;;;;;;16.93;10.10;;;1.60;99.90;;;;;;5072963;28;20211;-54
2022/12/08 08:03:47;;;;;;;14.30;10.17;;;1.80;99.90;;;;;;5073119;28;20216;-54
2022/12/08 08:06:13;;;;;;;12.73;9.50;;;1.90;99.90;;;;;;5073513;28;20238;-54
2022/12/08 08:08:40;;;;;;;27.83;10.47;;;1.80;99.90;;;;;;5074044;28;20673;-60
2022/12/08 08:11:09;;;;;;;15.57;10.33;;;1.80;99.90;;;;;;5075743;28;20311;-55
2022/12/08 08:13:37;;;;;;;15.33;10.47;;;1.80;99.90;;;;;;5074777;28;20204;-53
2022/12/08 08:16:05;;;;;;;12.50;9.33;;;2.10;99.90;;;;;;5074285;28;20300;-57
2022/12/08 08:18:32;;;;;;;12.70;9.40;;;2.30;99.90;;;;;;5075736;28;20200;-58
2022/12/08 08:20:59;;;;;;;13.93;10.10;;;2.40;99.90;;;;;;5074523;28;20651;-57
2022/12/08 08:23:26;;;;;;;15.73;10.57;;;2.40;99.90;;;;;;5075138;28;20220;-58
2022/12/08 08:25:53;;;;;;;13.33;10.00;;;2.40;99.90;;;;;;5075828;28;20262;-57
2022/12/08 08:28:22;;;;;;;11.87;9.17;;;2.40;99.90;;;;;;5078321;28;20583;-58
2022/12/08 08:30:49;;;;;;;12.53;8.40;;;2.60;99.90;;;;;;5078858;28;20291;-58
2022/12/08 08:33:16;;;;;;;12.23;9.60;;;2.60;99.90;;;;;;5078274;28;20292;-58
2022/12/08 08:35:42;;;;;;;11.17;8.37;;;2.50;99.90;;;;;;5080066;28;20200;-58
2022/12/08 08:38:09;;;;;;;12.67;8.83;;;2.50;99.90;;;;;;5078808;28;20296;-58
2022/12/08 08:40:36;;;;;;;11.33;7.77;;;2.30;99.90;;;;;;5079585;28;20304;-57
2022/12/08 08:43:04;;;;;;;10.83;7.60;;;2.20;99.90;;;;;;5079247;28;20224;-58
2022/12/08 08:45:33;;;;;;;10.23;7.67;;;2.20;99.90;;;;;;5077646;28;20229;-58
2022/12/08 08:48:00;;;;;;;11.83;8.60;;;2.20;99.90;;;;;;5078971;28;20212;-57
2022/12/08 08:50:28;;;;;;;9.80;7.17;;;2.20;99.90;;;;;;5079051;28;20508;-58
2022/12/08 08:52:55;;;;;;;10.53;7.23;;;2.30;99.90;;;;;;5079215;28;20224;-58
2022/12/08 08:55:21;;;;;;;10.27;7.83;;;2.30;99.90;;;;;;5080210;28;20603;-58
2022/12/08 08:57:48;;;;;;;10.43;7.77;;;2.40;99.90;;;;;;5079610;28;20208;-56
2022/12/08 09:00:16;;;;;;;10.43;7.70;;;2.50;99.90;;;;;;5078891;28;20215;-56
2022/12/08 09:02:44;;;;;;;9.43;7.60;;;2.60;99.90;;;;;;5076550;28;20225;-57
2022/12/08 09:05:12;;;;;;;9.00;7.07;;;2.80;99.90;;;;;;5075728;28;20208;-57
2022/12/08 09:07:39;;;;;;;10.53;6.77;;;3.10;99.90;;;;;;5076204;28;20251;-55
2022/12/08 09:10:07;;;;;;;9.70;6.80;;;3.20;99.90;;;;;;5076525;28;20299;-56
2022/12/08 09:12:34;;;;;;;9.27;7.07;;;3.20;99.90;;;;;;5076196;28;20228;-56
2022/12/08 09:15:00;;;;;;;9.60;6.73;;;3.00;99.90;;;;;;5076526;28;20716;-57
2022/12/08 09:17:27;;;;;;;9.53;7.10;;;2.90;99.90;;;;;;5076625;28;20205;-56
2022/12/08 09:19:55;;;;;;;11.80;7.27;;;2.90;99.90;;;;;;5076550;28;20208;-58
2022/12/08 09:22:22;;;;;;;9.97;6.90;;;2.90;99.90;;;;;;5075736;28;20256;-57
2022/12/08 09:24:49;;;;;;;10.90;7.20;;;3.00;99.90;;;;;;5076510;28;20205;-57
2022/12/08 09:27:16;;;;;;;10.53;7.40;;;3.00;99.90;;;;;;5076286;28;20212;-57
2022/12/08 09:29:43;;;;;;;9.43;7.40;;;3.10;99.90;;;;;;5076135;28;20243;-58
2022/12/08 09:32:10;;;;;;;9.20;6.53;;;3.10;99.90;;;;;;5075718;28;20756;-57
2022/12/08 09:34:37;;;;;;;8.43;6.50;;;3.30;99.90;;;;;;5076603;28;20212;-58
2022/12/08 09:37:05;;;;;;;8.30;6.77;;;3.30;99.90;;;;;;5076044;28;20209;-57
2022/12/08 09:39:32;;;;;;;8.70;6.00;;;3.20;99.90;;;;;;5075695;28;20262;-58
2022/12/08 09:42:01;;;;;;;9.73;7.10;;;3.10;99.90;;;;;;5076141;28;20248;-61
2022/12/08 09:44:47;;;;;;;10.57;7.20;;;3.10;99.90;;;;;;5076874;28;20205;-56
2022/12/08 09:47:19;;;;;;;10.33;7.10;;;3.20;99.90;;;;;;5077211;28;20258;-64
2022/12/08 09:49:52;;;;;;;10.10;7.00;;;3.20;99.90;;;;;;5076191;28;20215;-55
2022/12/08 09:52:24;;;;;;;8.47;6.50;;;3.30;99.90;;;;;;5075071;28;20256;-55
2022/12/08 09:54:51;;;;;;;9.53;6.63;;;3.50;99.90;;;;;;5075472;28;20208;-54
2022/12/08 09:57:22;;;;;;;7.83;6.60;;;3.60;99.90;;;;;;5075588;28;20205;-55
2022/12/08 09:59:53;;;;;;;8.43;6.43;;;3.70;99.90;;;;;;5075508;28;20209;-54
2022/12/08 10:02:23;;;;;;;17.77;9.90;;;3.80;99.90;;;;;;5075218;28;20221;-54
2022/12/08 10:04:50;;;;;;;11.73;7.80;;;3.80;99.90;;;;;;5075764;28;20204;-55
2022/12/08 10:07:20;;;;;;;11.00;7.70;;;3.90;99.90;;;;;;5075495;28;20208;-54
2022/12/08 10:09:58;;;;;;;8.17;6.10;;;4.00;99.90;;;;;;5075264;28;20201;-55
2022/12/08 10:12:31;;;;;;;8.33;6.67;;;4.20;99.90;;;;;;5074118;28;20228;-54
2022/12/08 10:15:10;;;;;;;8.17;6.47;;;4.30;99.90;;;;;;5074869;28;20247;-54
2022/12/08 10:17:42;;;;;;;8.33;6.80;;;4.60;99.90;;;;;;5075277;28;20220;-54
2022/12/08 10:20:15;;;;;;;7.70;6.13;;;4.80;99.90;;;;;;5073618;28;20215;-55
2022/12/08 10:22:42;;;;;;;8.63;6.20;;;4.90;99.90;;;;;;5074154;28;20225;-54
2022/12/08 10:25:17;;;;;;;6.53;5.40;;;5.10;99.90;;;;;;5075286;28;20201;-54
2022/12/08 10:27:43;;;;;;;8.67;5.37;;;5.20;99.90;;;;;;5074736;28;20211;-53
2022/12/08 10:30:12;;;;;;;6.90;4.83;;;5.30;99.90;;;;;;5075535;28;20205;-59
2022/12/08 10:32:40;;;;;;;8.47;5.57;;;5.50;99.90;;;;;;5074059;28;20236;-55
2022/12/08 10:35:10;;;;;;;5.87;4.83;;;5.60;99.90;;;;;;5074441;28;20204;-56
2022/12/08 10:37:38;;;;;;;8.00;4.77;;;5.60;99.90;;;;;;5074855;28;20271;-55
2022/12/08 10:40:12;;;;;;;6.37;4.80;;;5.80;99.90;;;;;;5075097;28;20228;-56
2022/12/08 10:42:42;;;;;;;12.27;5.20;;;6.10;99.90;;;;;;5074381;28;20227;-56
2022/12/08 10:45:28;;;;;;;6.57;4.43;;;6.40;99.90;;;;;;5074419;28;20220;-56
2022/12/08 10:48:03;;;;;;;7.30;4.30;;;6.80;99.90;;;;;;5074427;28;20209;-56
2022/12/08 10:50:35;;;;;;;5.60;4.43;;;7.20;99.90;;;;;;5074734;28;20204;-56
2022/12/08 10:53:12;;;;;;;7.07;4.30;;;7.60;99.90;;;;;;5073940;28;20593;-58
2022/12/08 10:55:43;;;;;;;6.07;4.07;;;7.90;99.90;;;;;;5074737;28;20215;-57
2022/12/08 10:58:27;;;;;;;5.33;4.27;;;8.30;99.90;;;;;;5074671;28;20236;-57
2022/12/08 11:00:57;;;;;;;5.20;4.13;;;8.50;99.90;;;;;;5074410;28;20209;-58
2022/12/08 11:03:29;;;;;;;6.40;4.10;;;8.80;99.90;;;;;;5073491;28;20225;-56
2022/12/08 11:05:58;;;;;;;6.30;4.53;;;9.00;99.90;;;;;;5074207;28;20216;-56
2022/12/08 11:08:26;;;;;;;7.70;3.70;;;9.10;99.90;;;;;;5073572;28;20216;-57
2022/12/08 11:10:55;;;;;;;4.53;3.87;;;9.30;99.90;;;;;;5073954;28;20291;-57
2022/12/08 11:13:24;;;;;;;8.73;6.57;;;9.40;99.90;;;;;;5073836;28;20232;-57
2022/12/08 11:15:53;;;;;;;7.80;5.30;;;9.60;99.90;;;;;;5073902;28;20237;-57
2022/12/08 11:18:28;;;;;;;6.90;4.43;;;9.70;99.90;;;;;;5073852;28;20589;-57
2022/12/08 11:21:05;;;;;;;5.53;4.10;;;9.90;99.90;;;;;;5073718;28;20204;-57
2022/12/08 11:23:35;;;;;;;4.40;3.60;;;9.80;99.90;;;;;;5073488;28;20227;-57
2022/12/08 11:26:11;;;;;;;4.67;3.60;;;9.80;99.90;;;;;;5073334;28;20672;-57
2022/12/08 11:28:38;;;;;;;5.13;4.00;;;9.80;99.90;;;;;;5073577;28;20185;-57
2022/12/08 11:31:12;;;;;;;4.77;3.97;;;9.80;99.90;;;;;;5073100;28;20234;-57
2022/12/08 11:33:42;;;;;;;6.30;3.30;;;9.80;99.90;;;;;;5072539;28;20283;-56
2022/12/08 11:36:12;;;;;;;6.50;3.20;;;9.70;99.90;;;;;;5073462;28;20302;-57
2022/12/08 11:38:42;;;;;;;4.03;3.50;;;9.70;99.90;;;;;;5073551;28;20205;-58
2022/12/08 11:41:14;;;;;;;5.77;3.80;;;9.50;99.90;;;;;;5073407;28;20205;-55
2022/12/08 11:43:46;;;;;;;3.90;3.50;;;9.50;99.90;;;;;;5073000;28;20190;-57
2022/12/08 11:46:19;;;;;;;3.90;3.07;;;9.60;99.90;;;;;;5073074;28;20698;-56
2022/12/08 11:48:50;;;;;;;4.30;3.30;;;9.60;99.90;;;;;;5073157;28;20208;-57
2022/12/08 11:51:21;;;;;;;4.73;3.37;;;9.50;99.90;;;;;;5073054;28;20219;-56
2022/12/08 11:53:59;;;;;;;3.60;2.70;;;9.30;99.90;;;;;;5072315;28;20224;-56
2022/12/08 11:56:33;;;;;;;3.37;2.80;;;9.10;99.90;;;;;;5073049;28;20213;-57
2022/12/08 11:59:03;;;;;;;4.43;3.10;;;9.20;99.90;;;;;;5072962;28;20209;-57
2022/12/08 12:01:30;;;;;;;7.57;5.27;;;9.30;99.90;;;;;;5072685;28;20739;-57
2022/12/08 12:04:09;;;;;;;5.37;3.23;;;9.40;99.90;;;;;;5072217;28;20557;-56
2022/12/08 12:07:08;;;;;;;3.80;2.67;;;9.40;99.90;;;;;;5072964;28;20216;-56
2022/12/08 12:09:48;;;;;;;3.03;2.50;;;9.50;99.90;;;;;;5056111;28;20201;-57
2022/12/08 12:12:28;;;;;;;4.13;2.80;;;9.60;99.90;;;;;;5072813;28;20315;-59
2022/12/08 12:15:36;;;;;;;3.70;2.90;;;9.60;99.90;;;;;;5072968;28;20197;-56
2022/12/08 12:18:11;;;;;;;5.93;3.23;;;9.60;99.90;;;;;;4970291;28;20227;-57
2022/12/08 12:20:44;;;;;;;4.30;3.13;;;9.50;99.90;;;;;;5072682;28;20200;-56
2022/12/08 12:23:19;;;;;;;4.33;3.23;;;9.60;99.90;;;;;;5071964;28;20229;-56
2022/12/08 12:25:51;;;;;;;6.47;3.20;;;9.70;99.90;;;;;;5072852;28;20299;-56
2022/12/08 12:28:19;;;;;;;4.57;3.17;;;9.70;99.90;;;;;;5072070;28;20694;-56
2022/12/08 12:30:53;;;;;;;5.77;3.17;;;9.60;99.90;;;;;;5072556;28;20204;-56
2022/12/08 12:33:22;;;;;;;4.63;3.13;;;9.50;99.90;;;;;;5072108;28;20239;-69
2022/12/08 12:35:49;;;;;;;5.13;3.53;;;9.40;99.90;;;;;;5072154;28;20223;-57
2022/12/08 12:41:08;;;;;;;4.70;3.73;;;9.30;99.90;;;;;;5072342;28;20200;-58
2022/12/08 12:43:37;;;;;;;5.53;4.07;;;9.30;99.90;;;;;;5071269;28;20297;-56
2022/12/08 12:46:40;;;;;;;6.97;4.70;;;9.20;99.90;;;;;;5072534;28;20209;-56
2022/12/08 12:49:44;;;;;;;8.10;6.73;;;9.10;99.90;;;;;;5072893;28;20200;-56
2022/12/08 12:52:36;;;;;;;8.77;5.17;;;9.20;99.90;;;;;;5072228;28;20320;-56
2022/12/08 12:55:25;;;;;;;5.37;4.20;;;9.20;99.90;;;;;;5061247;28;20212;-55
2022/12/08 12:57:53;;;;;;;5.40;4.40;;;9.00;99.90;;;;;;5034635;28;20266;-55
2022/12/08 13:00:23;;;;;;;7.83;4.23;;;8.80;99.90;;;;;;5072496;28;20215;-55
2022/12/08 13:02:51;;;;;;;6.87;4.10;;;8.80;99.90;;;;;;5072145;28;20227;-55
2022/12/08 13:05:22;;;;;;;6.77;4.70;;;8.80;99.90;;;;;;5072126;28;20212;-56
2022/12/08 13:07:52;;;;;;;8.40;5.10;;;8.90;99.90;;;;;;5072344;28;20217;-56
2022/12/08 13:10:23;;;;;;;5.80;4.37;;;8.80;99.90;;;;;;5072021;28;20205;-56
2022/12/08 13:13:04;;;;;;;7.30;5.00;;;8.70;99.90;;;;;;5071696;28;20319;-55